createdAt,value
2018-05-21T00:00:32.077Z,13.39
2018-05-21T00:01:31.975Z,13.41
2018-05-21T00:02:31.884Z,13.46
2018-05-21T00:03:31.781Z,13.23
2018-05-21T00:04:31.689Z,13.38
2018-05-21T00:05:31.585Z,13.44
2018-05-21T00:06:31.496Z,13.44
2018-05-21T00:07:31.392Z,13.59
2018-05-21T00:08:31.288Z,13.71
2018-05-21T00:09:31.197Z,13.83
2018-05-21T00:10:31.094Z,13.85
2018-05-21T00:11:31.004Z,13.77
2018-05-21T00:12:30.901Z,13.78
2018-05-21T00:13:30.798Z,13.72
2018-05-21T00:14:30.706Z,13.89
2018-05-21T00:15:30.602Z,13.86
2018-05-21T00:16:30.512Z,13.83
2018-05-21T00:17:30.410Z,13.93
2018-05-21T00:18:30.306Z,14.04
2018-05-21T00:19:30.214Z,13.99
2018-05-21T00:20:30.111Z,14.05
2018-05-21T00:21:30.022Z,14.04
2018-05-21T00:22:29.918Z,13.93
2018-05-21T00:23:29.814Z,13.86
2018-05-21T00:24:29.726Z,13.87
2018-05-21T00:25:29.620Z,13.83
2018-05-21T00:26:29.531Z,13.90
2018-05-21T00:27:29.427Z,13.81
2018-05-21T00:28:29.323Z,13.72
2018-05-21T00:29:29.244Z,13.72
2018-05-21T00:30:29.128Z,13.72
2018-05-21T00:31:29.043Z,13.57
2018-05-21T00:32:28.935Z,13.65
2018-05-21T00:33:28.832Z,13.71
2018-05-21T00:34:28.740Z,13.72
2018-05-21T00:35:28.640Z,13.71
2018-05-21T00:36:28.535Z,13.72
2018-05-21T00:37:28.443Z,13.74
2018-05-21T00:38:28.340Z,13.71
2018-05-21T00:39:28.251Z,13.65
2018-05-21T00:40:28.144Z,13.71
2018-05-21T00:41:28.043Z,13.67
2018-05-21T00:42:27.952Z,13.59
2018-05-21T00:43:27.849Z,13.57
2018-05-21T00:44:27.757Z,13.53
2018-05-21T00:45:27.653Z,13.46
2018-05-21T00:46:27.550Z,13.46
2018-05-21T00:47:27.460Z,13.42
2018-05-21T00:48:27.357Z,13.42
2018-05-21T00:49:27.265Z,13.30
2018-05-21T00:50:27.162Z,13.22
2018-05-21T00:51:27.058Z,13.18
2018-05-21T00:52:26.973Z,13.11
2018-05-21T00:53:26.865Z,13.11
2018-05-21T00:54:26.761Z,13.00
2018-05-21T00:55:26.670Z,12.93
2018-05-21T00:56:26.567Z,12.94
2018-05-21T00:57:26.776Z,12.90
2018-05-21T00:58:26.374Z,12.98
2018-05-21T00:59:26.271Z,13.00
2018-05-21T01:00:26.178Z,13.08
2018-05-21T01:01:26.075Z,13.13
2018-05-21T01:02:25.972Z,12.97
2018-05-21T01:03:25.881Z,13.05
2018-05-21T01:04:25.779Z,13.15
2018-05-21T01:05:25.687Z,13.12
2018-05-21T01:06:25.584Z,13.12
2018-05-21T01:07:25.789Z,13.04
2018-05-21T01:08:25.390Z,12.95
2018-05-21T01:09:25.294Z,13.16
2018-05-21T01:10:25.184Z,13.13
2018-05-21T01:11:25.095Z,13.15
2018-05-21T01:12:24.989Z,13.05
2018-05-21T01:13:24.886Z,12.95
2018-05-21T01:14:24.796Z,12.95
2018-05-21T01:15:24.693Z,12.79
2018-05-21T01:16:24.590Z,12.75
2018-05-21T01:17:24.497Z,12.70
2018-05-21T01:18:24.394Z,12.67
2018-05-21T01:19:24.303Z,12.65
2018-05-21T01:20:24.200Z,12.47
2018-05-21T01:21:24.097Z,12.57
2018-05-21T01:22:24.005Z,12.55
2018-05-21T01:23:23.901Z,12.49
2018-05-21T01:24:23.798Z,12.45
2018-05-21T01:25:23.712Z,12.49
2018-05-21T01:26:23.605Z,12.50
2018-05-21T01:27:23.502Z,12.55
2018-05-21T01:28:23.411Z,12.45
2018-05-21T01:29:23.320Z,12.57
2018-05-21T01:30:23.206Z,12.60
2018-05-21T01:31:23.114Z,12.55
2018-05-21T01:32:23.010Z,12.49
2018-05-21T01:33:22.919Z,12.43
2018-05-21T01:34:22.815Z,12.57
2018-05-21T01:35:22.712Z,12.54
2018-05-21T01:36:22.622Z,12.53
2018-05-21T01:37:22.518Z,12.40
2018-05-21T01:38:22.415Z,12.57
2018-05-21T01:39:22.324Z,12.49
2018-05-21T01:40:22.302Z,12.53
2018-05-21T01:41:22.117Z,12.45
2018-05-21T01:42:22.027Z,12.45
2018-05-21T01:43:21.924Z,12.42
2018-05-21T01:44:21.820Z,12.42
2018-05-21T01:45:21.729Z,12.36
2018-05-21T01:46:21.626Z,12.37
2018-05-21T01:47:21.523Z,12.37
2018-05-21T01:48:21.433Z,12.32
2018-05-21T01:49:21.328Z,12.29
2018-05-21T01:50:21.226Z,12.35
2018-05-21T01:51:21.137Z,12.32
2018-05-21T01:52:21.031Z,12.31
2018-05-21T01:53:20.929Z,12.27
2018-05-21T01:54:20.837Z,12.27
2018-05-21T01:55:20.741Z,12.37
2018-05-21T01:56:20.630Z,12.31
2018-05-21T01:57:20.543Z,12.54
2018-05-21T01:58:20.436Z,12.58
2018-05-21T01:59:20.334Z,12.72
2018-05-21T02:00:20.243Z,12.68
2018-05-21T02:01:20.140Z,12.70
2018-05-21T02:02:20.037Z,12.90
2018-05-21T02:03:19.944Z,12.87
2018-05-21T02:04:19.843Z,12.83
2018-05-21T02:05:19.739Z,12.75
2018-05-21T02:06:19.648Z,12.60
2018-05-21T02:07:19.545Z,12.57
2018-05-21T02:08:19.451Z,12.55
2018-05-21T02:09:19.350Z,12.58
2018-05-21T02:10:19.246Z,12.73
2018-05-21T02:11:19.144Z,12.90
2018-05-21T02:12:19.053Z,13.03
2018-05-21T02:13:18.951Z,12.98
2018-05-21T02:14:18.847Z,13.01
2018-05-21T02:15:18.756Z,12.90
2018-05-21T02:16:18.651Z,12.91
2018-05-21T02:17:18.562Z,12.93
2018-05-21T02:18:18.458Z,12.76
2018-05-21T02:19:18.355Z,12.75
2018-05-21T02:20:18.252Z,12.70
2018-05-21T02:21:18.159Z,12.78
2018-05-21T02:22:18.057Z,12.79
2018-05-21T02:23:17.953Z,12.94
2018-05-21T02:24:17.863Z,12.78
2018-05-21T02:25:17.760Z,12.73
2018-05-21T02:26:17.657Z,12.75
2018-05-21T02:27:17.815Z,12.70
2018-05-21T02:28:17.462Z,12.76
2018-05-21T02:29:17.359Z,12.68
2018-05-21T02:30:17.269Z,12.68
2018-05-21T02:31:17.165Z,12.58
2018-05-21T02:32:17.062Z,12.57
2018-05-21T02:33:16.970Z,12.46
2018-05-21T02:34:16.869Z,12.53
2018-05-21T02:35:16.764Z,12.46
2018-05-21T02:36:16.675Z,12.46
2018-05-21T02:37:16.570Z,12.47
2018-05-21T02:38:16.467Z,12.50
2018-05-21T02:39:16.375Z,12.42
2018-05-21T02:40:16.272Z,12.35
2018-05-21T02:41:16.173Z,12.39
2018-05-21T02:42:16.067Z,12.24
2018-05-21T02:43:15.976Z,12.12
2018-05-21T02:44:15.873Z,12.06
2018-05-21T02:45:15.771Z,12.00
2018-05-21T02:46:15.690Z,12.00
2018-05-21T02:47:15.576Z,11.97
2018-05-21T02:48:15.471Z,11.88
2018-05-21T02:49:15.380Z,11.75
2018-05-21T02:50:15.279Z,11.77
2018-05-21T02:51:15.179Z,11.78
2018-05-21T02:52:15.082Z,11.73
2018-05-21T02:53:14.981Z,11.69
2018-05-21T02:54:14.877Z,11.69
2018-05-21T02:55:14.785Z,11.73
2018-05-21T02:56:14.682Z,11.77
2018-05-21T02:57:14.579Z,12.02
2018-05-21T02:58:14.487Z,12.07
2018-05-21T02:59:14.383Z,12.18
2018-05-21T03:00:14.280Z,12.31
2018-05-21T03:01:14.190Z,12.32
2018-05-21T03:02:14.170Z,12.28
2018-05-21T03:03:13.985Z,12.45
2018-05-21T03:04:13.881Z,12.47
2018-05-21T03:05:13.789Z,12.43
2018-05-21T03:06:13.686Z,12.62
2018-05-21T03:07:13.583Z,12.46
2018-05-21T03:08:13.492Z,12.60
2018-05-21T03:09:13.389Z,12.46
2018-05-21T03:10:13.286Z,12.55
2018-05-21T03:11:13.194Z,12.61
2018-05-21T03:12:13.091Z,12.61
2018-05-21T03:13:12.987Z,12.68
2018-05-21T03:14:12.897Z,12.58
2018-05-21T03:15:12.794Z,12.55
2018-05-21T03:16:12.691Z,12.61
2018-05-21T03:17:12.849Z,12.57
2018-05-21T03:18:12.496Z,12.65
2018-05-21T03:19:12.392Z,12.64
2018-05-21T03:20:12.289Z,12.70
2018-05-21T03:21:12.198Z,12.64
2018-05-21T03:22:12.095Z,12.60
2018-05-21T03:23:11.992Z,12.58
2018-05-21T03:24:11.904Z,12.50
2018-05-21T03:25:11.797Z,12.43
2018-05-21T03:26:11.693Z,12.54
2018-05-21T03:27:11.610Z,12.50
2018-05-21T03:28:11.500Z,12.45
2018-05-21T03:29:11.398Z,12.46
2018-05-21T03:30:11.306Z,12.47
2018-05-21T03:31:11.204Z,12.43
2018-05-21T03:32:11.100Z,12.49
2018-05-21T03:33:10.998Z,12.43
2018-05-21T03:34:10.906Z,12.43
2018-05-21T03:35:10.810Z,12.45
2018-05-21T03:36:10.699Z,12.54
2018-05-21T03:37:10.609Z,12.57
2018-05-21T03:38:10.509Z,12.50
2018-05-21T03:39:10.402Z,12.50
2018-05-21T03:40:10.312Z,12.42
2018-05-21T03:41:10.208Z,12.55
2018-05-21T03:42:10.105Z,12.46
2018-05-21T03:43:10.044Z,12.60
2018-05-21T03:44:09.909Z,12.72
2018-05-21T03:45:09.806Z,12.68
2018-05-21T03:46:09.717Z,12.72
2018-05-21T03:47:09.614Z,12.75
2018-05-21T03:48:09.511Z,12.70
2018-05-21T03:49:09.417Z,12.75
2018-05-21T03:50:09.314Z,12.91
2018-05-21T03:51:09.211Z,12.94
2018-05-21T03:52:09.121Z,12.95
2018-05-21T03:53:09.018Z,13.03
2018-05-21T03:54:08.914Z,13.08
2018-05-21T03:55:08.824Z,13.16
2018-05-21T03:56:08.720Z,13.25
2018-05-21T03:57:08.918Z,13.20
2018-05-21T03:58:08.526Z,13.15
2018-05-21T03:59:08.423Z,13.23
2018-05-21T04:00:08.319Z,13.20
2018-05-21T04:01:08.229Z,13.25
2018-05-21T04:02:08.125Z,13.37
2018-05-21T04:03:08.035Z,13.41
2018-05-21T04:04:07.934Z,13.50
2018-05-21T04:05:07.828Z,13.46
2018-05-21T04:06:07.737Z,13.53
2018-05-21T04:07:07.633Z,13.62
2018-05-21T04:08:07.531Z,13.70
2018-05-21T04:09:07.440Z,13.70
2018-05-21T04:10:07.337Z,13.78
2018-05-21T04:11:07.233Z,13.92
2018-05-21T04:12:07.146Z,14.00
2018-05-21T04:13:07.039Z,14.08
2018-05-21T04:14:06.952Z,14.32
2018-05-21T04:15:06.845Z,14.40
2018-05-21T04:16:06.742Z,14.58
2018-05-21T04:17:06.663Z,14.47
2018-05-21T04:18:06.547Z,14.37
2018-05-21T04:19:06.445Z,14.41
2018-05-21T04:20:06.355Z,14.36
2018-05-21T04:21:06.251Z,14.47
2018-05-21T04:22:06.163Z,14.59
2018-05-21T04:23:06.057Z,14.60
2018-05-21T04:24:05.953Z,14.66
2018-05-21T04:25:05.866Z,14.81
2018-05-21T04:26:05.759Z,14.89
2018-05-21T04:27:05.667Z,15.03
2018-05-21T04:28:05.564Z,15.22
2018-05-21T04:29:05.461Z,15.68
2018-05-21T04:30:05.377Z,16.10
2018-05-21T04:31:05.267Z,16.60
2018-05-21T04:32:05.175Z,17.09
2018-05-21T04:33:05.074Z,17.11
2018-05-21T04:34:04.983Z,17.19
2018-05-21T04:35:04.879Z,17.51
2018-05-21T04:36:04.787Z,17.63
2018-05-21T04:37:04.984Z,17.82
2018-05-21T04:38:04.601Z,18.11
2018-05-21T04:39:04.493Z,17.82
2018-05-21T04:40:04.399Z,17.60
2018-05-21T04:41:04.327Z,17.52
2018-05-21T04:42:04.207Z,17.36
2018-05-21T04:43:04.103Z,17.33
2018-05-21T04:44:04.011Z,17.46
2018-05-21T04:45:03.922Z,17.70
2018-05-21T04:46:03.846Z,17.97
2018-05-21T04:47:03.726Z,18.04
2018-05-21T04:48:03.624Z,17.92
2018-05-21T04:49:03.533Z,18.23
2018-05-21T04:50:03.441Z,18.13
2018-05-21T04:51:03.340Z,18.04
2018-05-21T04:52:03.247Z,18.10
2018-05-21T04:53:03.156Z,18.37
2018-05-21T04:54:03.052Z,18.60
2018-05-21T04:55:02.963Z,18.71
2018-05-21T04:56:02.875Z,18.80
2018-05-21T04:57:02.769Z,18.99
2018-05-21T04:58:02.678Z,19.07
2018-05-21T04:59:02.586Z,19.19
2018-05-21T05:00:02.489Z,18.65
2018-05-21T05:01:02.395Z,18.66
2018-05-21T05:02:02.302Z,18.44
2018-05-21T05:03:02.211Z,18.77
2018-05-21T05:04:02.110Z,19.29
2018-05-21T05:05:02.016Z,19.36
2018-05-21T05:06:01.929Z,19.41
2018-05-21T05:07:02.084Z,19.37
2018-05-21T05:08:01.733Z,18.99
2018-05-21T05:09:01.642Z,18.99
2018-05-21T05:10:01.554Z,19.19
2018-05-21T05:11:01.461Z,19.37
2018-05-21T05:12:01.368Z,19.37
2018-05-21T05:13:01.267Z,19.33
2018-05-21T05:14:01.178Z,19.16
2018-05-21T05:15:01.083Z,19.02
2018-05-21T05:16:00.994Z,19.30
2018-05-21T05:17:00.902Z,19.49
2018-05-21T05:18:00.813Z,19.73
2018-05-21T05:19:00.720Z,19.39
2018-05-21T05:20:00.617Z,19.54
2018-05-21T05:21:00.615Z,19.63
2018-05-21T05:22:00.435Z,20.06
2018-05-21T05:23:00.345Z,19.56
2018-05-21T05:24:00.254Z,19.36
2018-05-21T05:25:00.164Z,19.47
2018-05-21T05:26:00.071Z,19.04
2018-05-21T05:26:59.983Z,18.86
2018-05-21T05:27:59.878Z,19.18
2018-05-21T05:28:59.787Z,19.73
2018-05-21T05:29:59.696Z,20.22
2018-05-21T05:30:59.605Z,20.40
2018-05-21T05:31:59.815Z,20.65
2018-05-21T05:32:59.423Z,20.75
2018-05-21T05:33:59.333Z,20.65
2018-05-21T05:34:59.242Z,20.75
2018-05-21T05:35:59.224Z,20.52
2018-05-21T05:36:59.049Z,20.26
2018-05-21T05:37:58.956Z,19.91
2018-05-21T05:38:58.867Z,20.13
2018-05-21T05:39:58.775Z,20.55
2018-05-21T05:40:58.685Z,20.66
2018-05-21T05:41:58.897Z,20.43
2018-05-21T05:42:58.505Z,20.40
2018-05-21T05:43:58.411Z,20.88
2018-05-21T05:44:58.322Z,21.50
2018-05-21T05:45:58.230Z,21.60
2018-05-21T05:46:58.141Z,20.78
2018-05-21T05:47:58.072Z,20.40
2018-05-21T05:48:57.965Z,20.09
2018-05-21T05:49:57.867Z,20.14
2018-05-21T05:50:57.777Z,20.14
2018-05-21T05:51:57.685Z,20.36
2018-05-21T05:52:57.595Z,20.02
2018-05-21T05:53:57.504Z,20.25
2018-05-21T05:54:57.414Z,20.47
2018-05-21T05:55:57.322Z,20.36
2018-05-21T05:56:57.232Z,20.58
2018-05-21T05:57:57.140Z,20.51
2018-05-21T05:58:57.054Z,21.27
2018-05-21T05:59:56.959Z,21.62
2018-05-21T06:00:56.868Z,21.24
2018-05-21T06:01:56.777Z,21.61
2018-05-21T06:02:56.687Z,21.22
2018-05-21T06:03:56.596Z,21.43
2018-05-21T06:04:56.506Z,21.43
2018-05-21T06:05:56.414Z,21.45
2018-05-21T06:06:56.325Z,21.91
2018-05-21T06:07:56.232Z,22.29
2018-05-21T06:08:56.142Z,22.57
2018-05-21T06:09:56.068Z,22.32
2018-05-21T06:10:55.961Z,22.25
2018-05-21T06:11:55.869Z,22.23
2018-05-21T06:12:55.778Z,22.17
2018-05-21T06:13:55.690Z,22.00
2018-05-21T06:14:55.610Z,22.10
2018-05-21T06:15:55.519Z,22.18
2018-05-21T06:16:55.427Z,21.98
2018-05-21T06:17:55.337Z,22.55
2018-05-21T06:18:55.246Z,22.80
2018-05-21T06:19:55.156Z,21.95
2018-05-21T06:20:55.065Z,21.48
2018-05-21T06:21:55.224Z,21.57
2018-05-21T06:22:54.884Z,21.42
2018-05-21T06:23:54.804Z,21.55
2018-05-21T06:24:54.715Z,22.33
2018-05-21T06:25:54.633Z,22.25
2018-05-21T06:26:54.533Z,21.99
2018-05-21T06:27:54.441Z,21.96
2018-05-21T06:28:54.351Z,21.77
2018-05-21T06:29:54.260Z,21.96
2018-05-21T06:30:54.180Z,22.69
2018-05-21T06:31:54.091Z,23.44
2018-05-21T06:32:54.000Z,23.84
2018-05-21T06:33:53.919Z,22.76
2018-05-21T06:34:53.817Z,22.98
2018-05-21T06:35:53.729Z,22.80
2018-05-21T06:36:53.649Z,22.76
2018-05-21T06:37:53.549Z,22.54
2018-05-21T06:38:53.468Z,22.63
2018-05-21T06:39:53.379Z,22.25
2018-05-21T06:40:53.286Z,22.11
2018-05-21T06:41:53.198Z,21.73
2018-05-21T06:42:53.117Z,21.69
2018-05-21T06:43:53.026Z,21.60
2018-05-21T06:44:52.936Z,21.92
2018-05-21T06:45:52.845Z,22.36
2018-05-21T06:46:52.753Z,22.41
2018-05-21T06:47:52.711Z,23.10
2018-05-21T06:48:52.585Z,23.43
2018-05-21T06:49:52.493Z,23.84
2018-05-21T06:50:52.405Z,24.28
2018-05-21T06:51:52.313Z,24.48
2018-05-21T06:52:52.222Z,24.42
2018-05-21T06:53:52.143Z,23.55
2018-05-21T06:54:52.052Z,23.34
2018-05-21T06:55:51.962Z,23.37
2018-05-21T06:56:51.871Z,23.54
2018-05-21T06:57:51.793Z,23.28
2018-05-21T06:58:51.702Z,23.50
2018-05-21T06:59:51.712Z,24.02
2018-05-21T07:00:51.520Z,24.42
2018-05-21T07:01:51.441Z,23.78
2018-05-21T07:02:51.351Z,23.32
2018-05-21T07:03:51.260Z,23.59
2018-05-21T07:04:51.169Z,23.34
2018-05-21T07:05:51.091Z,23.18
2018-05-21T07:06:50.999Z,23.24
2018-05-21T07:07:50.925Z,22.88
2018-05-21T07:08:50.819Z,22.91
2018-05-21T07:09:50.741Z,23.23
2018-05-21T07:10:50.657Z,23.78
2018-05-21T07:11:50.558Z,24.36
2018-05-21T07:12:50.470Z,24.50
2018-05-21T07:13:50.388Z,24.86
2018-05-21T07:14:50.299Z,24.99
2018-05-21T07:15:50.208Z,25.44
2018-05-21T07:16:50.116Z,25.36
2018-05-21T07:17:50.043Z,26.09
2018-05-21T07:18:49.947Z,25.68
2018-05-21T07:19:49.856Z,25.51
2018-05-21T07:20:49.778Z,25.98
2018-05-21T07:21:49.938Z,25.83
2018-05-21T07:22:49.597Z,25.54
2018-05-21T07:23:49.519Z,25.50
2018-05-21T07:24:49.427Z,25.93
2018-05-21T07:25:49.337Z,25.59
2018-05-21T07:26:49.259Z,24.86
2018-05-21T07:27:49.167Z,24.77
2018-05-21T07:28:49.077Z,25.14
2018-05-21T07:29:48.999Z,25.06
2018-05-21T07:30:48.909Z,25.83
2018-05-21T07:31:48.829Z,26.47
2018-05-21T07:32:48.738Z,27.07
2018-05-21T07:33:48.647Z,27.45
2018-05-21T07:34:48.569Z,27.54
2018-05-21T07:35:48.492Z,26.38
2018-05-21T07:36:48.389Z,25.60
2018-05-21T07:37:48.314Z,25.50
2018-05-21T07:38:48.235Z,25.63
2018-05-21T07:39:48.140Z,25.40
2018-05-21T07:40:48.049Z,25.23
2018-05-21T07:41:48.054Z,24.96
2018-05-21T07:42:47.885Z,25.54
2018-05-21T07:43:47.789Z,26.31
2018-05-21T07:44:47.737Z,26.23
2018-05-21T07:45:47.620Z,26.25
2018-05-21T07:46:47.542Z,26.13
2018-05-21T07:47:47.451Z,26.03
2018-05-21T07:48:47.361Z,26.34
2018-05-21T07:49:47.282Z,26.05
2018-05-21T07:50:47.205Z,25.51
2018-05-21T07:51:47.113Z,26.05
2018-05-21T07:52:47.023Z,25.95
2018-05-21T07:53:46.933Z,26.25
2018-05-21T07:54:46.859Z,25.78
2018-05-21T07:55:46.763Z,25.18
2018-05-21T07:56:46.934Z,24.70
2018-05-21T07:57:46.593Z,24.74
2018-05-21T07:58:46.514Z,25.06
2018-05-21T07:59:46.425Z,24.80
2018-05-21T08:00:46.336Z,24.50
2018-05-21T08:01:46.249Z,24.92
2018-05-21T08:02:46.165Z,25.18
2018-05-21T08:03:46.073Z,24.99
2018-05-21T08:04:45.998Z,24.76
2018-05-21T08:05:45.893Z,24.68
2018-05-21T08:06:45.813Z,24.21
2018-05-21T08:07:45.723Z,23.71
2018-05-21T08:08:45.631Z,23.68
2018-05-21T08:09:45.542Z,23.69
2018-05-21T08:10:45.450Z,23.43
2018-05-21T08:11:45.361Z,23.50
2018-05-21T08:12:45.280Z,23.41
2018-05-21T08:13:45.190Z,23.50
2018-05-21T08:14:45.199Z,23.43
2018-05-21T08:15:45.009Z,23.46
2018-05-21T08:16:44.918Z,23.40
2018-05-21T08:17:44.828Z,23.03
2018-05-21T08:18:44.738Z,23.02
2018-05-21T08:19:44.646Z,22.85
2018-05-21T08:20:44.556Z,22.55
2018-05-21T08:21:44.713Z,22.48
2018-05-21T08:22:44.373Z,22.55
2018-05-21T08:23:44.281Z,22.45
2018-05-21T08:24:44.192Z,22.60
2018-05-21T08:25:44.106Z,22.70
2018-05-21T08:26:44.014Z,22.76
2018-05-21T08:27:43.919Z,23.17
2018-05-21T08:28:43.828Z,23.00
2018-05-21T08:29:43.742Z,23.71
2018-05-21T08:30:43.648Z,24.10
2018-05-21T08:31:43.543Z,24.55
2018-05-21T08:32:43.453Z,24.55
2018-05-21T08:33:43.362Z,24.89
2018-05-21T08:34:43.272Z,24.98
2018-05-21T08:35:43.184Z,24.77
2018-05-21T08:36:43.093Z,24.76
2018-05-21T08:37:42.999Z,25.13
2018-05-21T08:38:42.909Z,25.33
2018-05-21T08:39:42.805Z,25.63
2018-05-21T08:40:42.713Z,25.13
2018-05-21T08:41:42.622Z,24.70
2018-05-21T08:42:42.609Z,25.38
2018-05-21T08:43:42.440Z,25.59
2018-05-21T08:44:42.351Z,25.98
2018-05-21T08:45:42.259Z,26.05
2018-05-21T08:46:42.169Z,25.36
2018-05-21T08:47:42.079Z,25.25
2018-05-21T08:48:42.007Z,25.29
2018-05-21T08:49:41.896Z,25.88
2018-05-21T08:50:41.808Z,25.18
2018-05-21T08:51:41.715Z,24.50
2018-05-21T08:52:41.624Z,24.50
2018-05-21T08:53:41.533Z,24.98
2018-05-21T08:54:41.454Z,24.86
2018-05-21T08:55:41.365Z,25.04
2018-05-21T08:56:41.394Z,25.16
2018-05-21T08:57:41.182Z,25.14
2018-05-21T08:58:41.094Z,25.32
2018-05-21T08:59:41.012Z,25.10
2018-05-21T09:00:40.922Z,25.46
2018-05-21T09:01:40.830Z,25.55
2018-05-21T09:02:40.752Z,25.85
2018-05-21T09:03:40.665Z,25.43
2018-05-21T09:04:40.584Z,25.16
2018-05-21T09:05:40.481Z,25.25
2018-05-21T09:06:40.403Z,25.33
2018-05-21T09:07:40.313Z,25.93
2018-05-21T09:08:40.220Z,25.87
2018-05-21T09:09:40.143Z,25.54
2018-05-21T09:10:40.050Z,25.46
2018-05-21T09:11:39.972Z,25.66
2018-05-21T09:12:39.882Z,25.81
2018-05-21T09:13:39.790Z,26.06
2018-05-21T09:14:39.713Z,25.81
2018-05-21T09:15:39.623Z,25.40
2018-05-21T09:16:39.641Z,25.23
2018-05-21T09:17:39.454Z,25.40
2018-05-21T09:18:39.374Z,25.41
2018-05-21T09:19:39.290Z,25.88
2018-05-21T09:20:39.193Z,24.53
2018-05-21T09:21:39.121Z,25.01
2018-05-21T09:22:39.117Z,25.68
2018-05-21T09:23:38.946Z,25.40
2018-05-21T09:24:38.858Z,25.23
2018-05-21T09:25:38.765Z,25.51
2018-05-21T09:26:38.686Z,25.35
2018-05-21T09:27:38.595Z,23.69
2018-05-21T09:28:38.518Z,24.16
2018-05-21T09:29:38.427Z,24.66
2018-05-21T09:30:38.349Z,24.68
2018-05-21T09:31:38.256Z,24.80
2018-05-21T09:32:38.175Z,25.31
2018-05-21T09:33:38.090Z,25.47
2018-05-21T09:34:38.005Z,25.72
2018-05-21T09:35:37.918Z,26.18
2018-05-21T09:36:37.828Z,26.36
2018-05-21T09:37:37.750Z,26.44
2018-05-21T09:38:37.661Z,26.18
2018-05-21T09:39:37.569Z,26.05
2018-05-21T09:40:37.490Z,25.54
2018-05-21T09:41:37.399Z,25.70
2018-05-21T09:42:37.320Z,26.23
2018-05-21T09:43:37.231Z,27.17
2018-05-21T09:44:37.152Z,26.77
2018-05-21T09:45:37.060Z,26.37
2018-05-21T09:46:36.981Z,26.18
2018-05-21T09:47:36.893Z,26.05
2018-05-21T09:48:36.838Z,26.47
2018-05-21T09:49:36.723Z,26.58
2018-05-21T09:50:36.646Z,26.59
2018-05-21T09:51:36.553Z,27.44
2018-05-21T09:52:36.475Z,28.17
2018-05-21T09:53:36.386Z,27.67
2018-05-21T09:54:36.353Z,27.74
2018-05-21T09:55:36.227Z,26.41
2018-05-21T09:56:36.141Z,26.25
2018-05-21T09:57:36.059Z,25.80
2018-05-21T09:58:35.967Z,25.90
2018-05-21T09:59:35.889Z,26.02
2018-05-21T10:00:35.799Z,25.60
2018-05-21T10:01:35.721Z,25.31
2018-05-21T10:02:35.630Z,25.22
2018-05-21T10:03:35.551Z,25.46
2018-05-21T10:04:35.465Z,25.48
2018-05-21T10:05:35.383Z,26.06
2018-05-21T10:06:35.304Z,26.55
2018-05-21T10:07:35.212Z,26.47
2018-05-21T10:08:35.134Z,25.08
2018-05-21T10:09:35.044Z,24.08
2018-05-21T10:10:34.967Z,23.91
2018-05-21T10:11:34.874Z,25.13
2018-05-21T10:12:34.796Z,25.65
2018-05-21T10:13:34.705Z,26.09
2018-05-21T10:14:34.631Z,26.25
2018-05-21T10:15:34.537Z,26.60
2018-05-21T10:16:34.457Z,26.55
2018-05-21T10:17:34.379Z,26.99
2018-05-21T10:18:34.290Z,26.59
2018-05-21T10:19:34.215Z,27.42
2018-05-21T10:20:34.119Z,27.44
2018-05-21T10:21:34.041Z,26.77
2018-05-21T10:22:33.963Z,26.47
2018-05-21T10:23:33.873Z,26.15
2018-05-21T10:24:33.797Z,26.19
2018-05-21T10:25:33.716Z,27.11
2018-05-21T10:26:33.626Z,27.14
2018-05-21T10:27:33.551Z,27.05
2018-05-21T10:28:33.467Z,27.86
2018-05-21T10:29:33.380Z,28.01
2018-05-21T10:30:33.299Z,27.48
2018-05-21T10:31:33.222Z,27.92
2018-05-21T10:32:33.142Z,27.00
2018-05-21T10:33:33.064Z,25.95
2018-05-21T10:34:32.973Z,25.59
2018-05-21T10:35:32.899Z,25.50
2018-05-21T10:36:32.818Z,25.17
2018-05-21T10:37:32.738Z,25.58
2018-05-21T10:38:32.659Z,26.18
2018-05-21T10:39:32.569Z,26.41
2018-05-21T10:40:32.492Z,26.78
2018-05-21T10:41:32.413Z,26.45
2018-05-21T10:42:32.324Z,26.70
2018-05-21T10:43:32.257Z,27.37
2018-05-21T10:44:32.165Z,28.15
2018-05-21T10:45:32.091Z,28.48
2018-05-21T10:46:32.000Z,28.85
2018-05-21T10:47:31.919Z,29.41
2018-05-21T10:48:31.840Z,29.90
2018-05-21T10:49:31.761Z,28.48
2018-05-21T10:50:31.671Z,27.49
2018-05-21T10:51:31.599Z,27.95
2018-05-21T10:52:31.522Z,28.26
2018-05-21T10:53:31.435Z,28.33
2018-05-21T10:54:31.345Z,28.26
2018-05-21T10:55:31.267Z,28.12
2018-05-21T10:56:31.188Z,27.63
2018-05-21T10:57:31.199Z,27.55
2018-05-21T10:58:31.033Z,27.44
2018-05-21T10:59:30.941Z,27.22
2018-05-21T11:00:30.861Z,27.37
2018-05-21T11:01:30.783Z,26.99
2018-05-21T11:02:30.706Z,26.77
2018-05-21T11:03:30.615Z,26.63
2018-05-21T11:04:30.583Z,26.97
2018-05-21T11:05:30.460Z,26.85
2018-05-21T11:06:30.381Z,26.99
2018-05-21T11:07:30.292Z,26.88
2018-05-21T11:08:30.210Z,26.53
2018-05-21T11:09:30.145Z,26.43
2018-05-21T11:10:30.053Z,26.51
2018-05-21T11:11:29.964Z,26.43
2018-05-21T11:12:29.886Z,26.74
2018-05-21T11:13:29.807Z,27.12
2018-05-21T11:14:29.729Z,26.81
2018-05-21T11:15:29.639Z,27.22
2018-05-21T11:16:29.559Z,26.52
2018-05-21T11:17:29.480Z,25.95
2018-05-21T11:18:29.390Z,25.63
2018-05-21T11:19:29.312Z,25.62
2018-05-21T11:20:29.234Z,25.51
2018-05-21T11:21:29.142Z,24.78
2018-05-21T11:22:29.064Z,24.70
2018-05-21T11:23:28.986Z,25.03
2018-05-21T11:24:28.896Z,25.25
2018-05-21T11:25:28.819Z,24.98
2018-05-21T11:26:28.727Z,24.88
2018-05-21T11:27:28.648Z,24.76
2018-05-21T11:28:28.571Z,24.84
2018-05-21T11:29:28.480Z,24.74
2018-05-21T11:30:28.400Z,24.51
2018-05-21T11:31:28.309Z,24.51
2018-05-21T11:32:28.231Z,24.54
2018-05-21T11:33:28.140Z,24.57
2018-05-21T11:34:28.049Z,24.69
2018-05-21T11:35:27.971Z,24.61
2018-05-21T11:36:27.881Z,24.61
2018-05-21T11:37:27.807Z,24.69
2018-05-21T11:38:27.711Z,24.84
2018-05-21T11:39:27.628Z,25.07
2018-05-21T11:40:27.530Z,25.16
2018-05-21T11:41:27.450Z,25.40
2018-05-21T11:42:27.363Z,25.48
2018-05-21T11:43:27.271Z,25.04
2018-05-21T11:44:27.190Z,25.18
2018-05-21T11:45:27.101Z,25.29
2018-05-21T11:46:27.036Z,25.22
2018-05-21T11:47:26.920Z,25.38
2018-05-21T11:48:26.841Z,25.06
2018-05-21T11:49:26.749Z,24.63
2018-05-21T11:50:26.660Z,24.54
2018-05-21T11:51:26.868Z,24.53
2018-05-21T11:52:26.481Z,24.50
2018-05-21T11:53:26.399Z,24.89
2018-05-21T11:54:26.308Z,25.87
2018-05-21T11:55:26.218Z,26.47
2018-05-21T11:56:26.126Z,26.05
2018-05-21T11:57:26.036Z,26.07
2018-05-21T11:58:25.961Z,26.26
2018-05-21T11:59:25.866Z,25.78
2018-05-21T12:00:25.776Z,25.59
2018-05-21T12:01:25.685Z,25.29
2018-05-21T12:02:25.596Z,25.46
2018-05-21T12:03:25.516Z,25.88
2018-05-21T12:04:25.451Z,26.05
2018-05-21T12:05:25.336Z,25.65
2018-05-21T12:06:25.256Z,25.81
2018-05-21T12:07:25.165Z,25.51
2018-05-21T12:08:25.076Z,25.32
2018-05-21T12:09:24.999Z,25.29
2018-05-21T12:10:24.907Z,25.07
2018-05-21T12:11:24.814Z,24.74
2018-05-21T12:12:24.736Z,24.84
2018-05-21T12:13:24.647Z,25.18
2018-05-21T12:14:24.567Z,25.29
2018-05-21T12:15:24.476Z,25.21
2018-05-21T12:16:24.384Z,24.95
2018-05-21T12:17:24.309Z,24.86
2018-05-21T12:18:24.217Z,24.84
2018-05-21T12:19:24.128Z,24.58
2018-05-21T12:20:24.047Z,24.48
2018-05-21T12:21:23.958Z,24.23
2018-05-21T12:22:23.887Z,24.05
2018-05-21T12:23:23.787Z,24.51
2018-05-21T12:24:23.696Z,24.70
2018-05-21T12:25:23.608Z,24.85
2018-05-21T12:26:23.540Z,25.16
2018-05-21T12:27:23.436Z,25.23
2018-05-21T12:28:23.344Z,25.17
2018-05-21T12:29:23.279Z,25.01
2018-05-21T12:30:23.178Z,24.84
2018-05-21T12:31:23.084Z,24.57
2018-05-21T12:32:22.996Z,24.42
2018-05-21T12:33:22.904Z,24.80
2018-05-21T12:34:22.825Z,24.84
2018-05-21T12:35:22.735Z,24.85
2018-05-21T12:36:22.644Z,24.63
2018-05-21T12:37:22.554Z,24.36
2018-05-21T12:38:22.466Z,24.38
2018-05-21T12:39:22.387Z,24.42
2018-05-21T12:40:22.293Z,24.50
2018-05-21T12:41:22.202Z,24.47
2018-05-21T12:42:22.117Z,24.50
2018-05-21T12:43:22.021Z,24.47
2018-05-21T12:44:21.931Z,24.60
2018-05-21T12:45:21.852Z,24.40
2018-05-21T12:46:21.761Z,24.66
2018-05-21T12:47:21.670Z,24.73
2018-05-21T12:48:21.578Z,24.78
2018-05-21T12:49:21.491Z,24.70
2018-05-21T12:50:21.397Z,24.98
2018-05-21T12:51:21.309Z,24.55